sensor_id;sensor_type;location;lat;lon;timestamp;pressure;altitude;pressure_sealevel;temperature
53412;BMP280;39307;52.870;13.660;2023-05-06T00:01:39;101273.25;;;12.68
53412;BMP280;39307;52.870;13.660;2023-05-06T00:04:05;101267.91;;;12.62
53412;BMP280;39307;52.870;13.660;2023-05-06T00:06:31;101255.75;;;12.61
53412;BMP280;39307;52.870;13.660;2023-05-06T00:08:58;101267.19;;;12.39
53412;BMP280;39307;52.870;13.660;2023-05-06T00:11:24;101257.41;;;12.47
53412;BMP280;39307;52.870;13.660;2023-05-06T00:13:50;101261.03;;;12.18
53412;BMP280;39307;52.870;13.660;2023-05-06T00:16:16;101255.88;;;12.24
53412;BMP280;39307;52.870;13.660;2023-05-06T00:18:43;101248.63;;;12.26
53412;BMP280;39307;52.870;13.660;2023-05-06T00:21:09;101249.91;;;12.16
53412;BMP280;39307;52.870;13.660;2023-05-06T00:23:35;101242.81;;;12.02
53412;BMP280;39307;52.870;13.660;2023-05-06T00:26:01;101257.28;;;11.84
53412;BMP280;39307;52.870;13.660;2023-05-06T00:28:28;101248.25;;;12.01
53412;BMP280;39307;52.870;13.660;2023-05-06T00:30:54;101244.53;;;12.10
53412;BMP280;39307;52.870;13.660;2023-05-06T00:33:20;101245.28;;;12.04
53412;BMP280;39307;52.870;13.660;2023-05-06T00:35:46;101247.94;;;11.82
53412;BMP280;39307;52.870;13.660;2023-05-06T00:38:13;101247.94;;;11.67
53412;BMP280;39307;52.870;13.660;2023-05-06T00:40:40;101236.28;;;11.48
53412;BMP280;39307;52.870;13.660;2023-05-06T00:43:06;101243.81;;;11.51
53412;BMP280;39307;52.870;13.660;2023-05-06T00:45:32;101237.00;;;11.42
53412;BMP280;39307;52.870;13.660;2023-05-06T00:47:59;101236.50;;;11.38
53412;BMP280;39307;52.870;13.660;2023-05-06T00:50:26;101232.91;;;11.39
53412;BMP280;39307;52.870;13.660;2023-05-06T00:52:53;101233.47;;;11.27
53412;BMP280;39307;52.870;13.660;2023-05-06T00:55:20;101233.13;;;11.08
53412;BMP280;39307;52.870;13.660;2023-05-06T00:57:46;101232.75;;;10.89
53412;BMP280;39307;52.870;13.660;2023-05-06T01:00:13;101236.69;;;10.85
53412;BMP280;39307;52.870;13.660;2023-05-06T01:02:39;101231.09;;;10.88
53412;BMP280;39307;52.870;13.660;2023-05-06T01:05:06;101230.31;;;10.79
53412;BMP280;39307;52.870;13.660;2023-05-06T01:10:52;101234.38;;;10.60
53412;BMP280;39307;52.870;13.660;2023-05-06T01:13:42;101230.97;;;10.51
53412;BMP280;39307;52.870;13.660;2023-05-06T01:16:12;101225.69;;;10.59
53412;BMP280;39307;52.870;13.660;2023-05-06T01:18:40;101220.66;;;10.50
53412;BMP280;39307;52.870;13.660;2023-05-06T01:21:08;101216.19;;;10.28
53412;BMP280;39307;52.870;13.660;2023-05-06T01:23:55;101216.81;;;10.30
53412;BMP280;39307;52.870;13.660;2023-05-06T01:26:21;101223.50;;;10.33
53412;BMP280;39307;52.870;13.660;2023-05-06T01:28:48;101227.59;;;10.35
53412;BMP280;39307;52.870;13.660;2023-05-06T01:31:22;101219.91;;;10.34
53412;BMP280;39307;52.870;13.660;2023-05-06T01:34:01;101221.28;;;10.14
53412;BMP280;39307;52.870;13.660;2023-05-06T01:37:19;101230.09;;;10.21
53412;BMP280;39307;52.870;13.660;2023-05-06T01:39:48;101228.38;;;9.98
53412;BMP280;39307;52.870;13.660;2023-05-06T01:42:15;101225.72;;;10.06
53412;BMP280;39307;52.870;13.660;2023-05-06T01:44:43;101225.25;;;9.86
53412;BMP280;39307;52.870;13.660;2023-05-06T01:47:09;101224.81;;;9.67
53412;BMP280;39307;52.870;13.660;2023-05-06T01:49:37;101229.38;;;9.65
53412;BMP280;39307;52.870;13.660;2023-05-06T01:52:03;101230.66;;;9.77
53412;BMP280;39307;52.870;13.660;2023-05-06T01:54:29;101238.00;;;9.81
53412;BMP280;39307;52.870;13.660;2023-05-06T01:56:56;101226.09;;;9.71
53412;BMP280;39307;52.870;13.660;2023-05-06T01:59:22;101222.97;;;9.76
53412;BMP280;39307;52.870;13.660;2023-05-06T02:01:48;101217.44;;;9.63
53412;BMP280;39307;52.870;13.660;2023-05-06T02:04:14;101223.00;;;9.60
53412;BMP280;39307;52.870;13.660;2023-05-06T02:06:40;101225.97;;;9.49
53412;BMP280;39307;52.870;13.660;2023-05-06T02:09:07;101233.28;;;9.46
53412;BMP280;39307;52.870;13.660;2023-05-06T02:11:33;101229.38;;;9.50
53412;BMP280;39307;52.870;13.660;2023-05-06T02:13:59;101224.47;;;9.39
53412;BMP280;39307;52.870;13.660;2023-05-06T02:16:28;101224.66;;;9.37
53412;BMP280;39307;52.870;13.660;2023-05-06T02:18:55;101227.75;;;9.41
53412;BMP280;39307;52.870;13.660;2023-05-06T02:21:21;101226.59;;;9.20
53412;BMP280;39307;52.870;13.660;2023-05-06T02:23:48;101223.34;;;9.25
53412;BMP280;39307;52.870;13.660;2023-05-06T02:26:14;101214.34;;;9.28
53412;BMP280;39307;52.870;13.660;2023-05-06T02:28:40;101212.88;;;9.10
53412;BMP280;39307;52.870;13.660;2023-05-06T02:31:07;101215.16;;;9.21
53412;BMP280;39307;52.870;13.660;2023-05-06T02:33:33;101210.91;;;9.20
53412;BMP280;39307;52.870;13.660;2023-05-06T02:35:59;101206.50;;;9.12
53412;BMP280;39307;52.870;13.660;2023-05-06T02:38:25;101205.84;;;9.10
53412;BMP280;39307;52.870;13.660;2023-05-06T02:40:52;101197.03;;;9.27
53412;BMP280;39307;52.870;13.660;2023-05-06T02:43:18;101205.34;;;9.15
53412;BMP280;39307;52.870;13.660;2023-05-06T02:45:44;101205.69;;;9.12
53412;BMP280;39307;52.870;13.660;2023-05-06T02:48:10;101213.03;;;9.24
53412;BMP280;39307;52.870;13.660;2023-05-06T02:50:37;101208.63;;;9.17
53412;BMP280;39307;52.870;13.660;2023-05-06T02:53:03;101201.13;;;9.14
53412;BMP280;39307;52.870;13.660;2023-05-06T02:55:29;101195.06;;;8.97
53412;BMP280;39307;52.870;13.660;2023-05-06T02:57:55;101206.00;;;9.01
53412;BMP280;39307;52.870;13.660;2023-05-06T03:00:21;101205.00;;;8.94
53412;BMP280;39307;52.870;13.660;2023-05-06T03:02:48;101197.63;;;8.82
53412;BMP280;39307;52.870;13.660;2023-05-06T03:05:14;101203.31;;;8.69
53412;BMP280;39307;52.870;13.660;2023-05-06T03:07:41;101195.16;;;8.64
53412;BMP280;39307;52.870;13.660;2023-05-06T03:10:07;101195.97;;;8.65
53412;BMP280;39307;52.870;13.660;2023-05-06T03:12:34;101194.84;;;8.67
53412;BMP280;39307;52.870;13.660;2023-05-06T03:15:00;101177.88;;;8.71
53412;BMP280;39307;52.870;13.660;2023-05-06T03:17:26;101181.31;;;8.72
53412;BMP280;39307;52.870;13.660;2023-05-06T03:19:52;101177.03;;;8.63
53412;BMP280;39307;52.870;13.660;2023-05-06T03:22:18;101171.97;;;8.54
53412;BMP280;39307;52.870;13.660;2023-05-06T03:24:45;101176.72;;;8.66
53412;BMP280;39307;52.870;13.660;2023-05-06T03:27:11;101173.63;;;8.63
53412;BMP280;39307;52.870;13.660;2023-05-06T03:29:37;101176.41;;;8.61
53412;BMP280;39307;52.870;13.660;2023-05-06T03:32:04;101178.38;;;8.26
53412;BMP280;39307;52.870;13.660;2023-05-06T03:34:30;101189.13;;;8.23
53412;BMP280;39307;52.870;13.660;2023-05-06T03:36:57;101192.97;;;8.44
53412;BMP280;39307;52.870;13.660;2023-05-06T03:39:23;101190.19;;;8.38
53412;BMP280;39307;52.870;13.660;2023-05-06T03:41:49;101191.97;;;8.45
53412;BMP280;39307;52.870;13.660;2023-05-06T03:44:15;101200.97;;;8.51
53412;BMP280;39307;52.870;13.660;2023-05-06T03:46:42;101195.41;;;8.46
53412;BMP280;39307;52.870;13.660;2023-05-06T03:49:08;101191.97;;;8.45
53412;BMP280;39307;52.870;13.660;2023-05-06T03:51:35;101177.75;;;8.32
53412;BMP280;39307;52.870;13.660;2023-05-06T03:54:01;101177.16;;;8.46
53412;BMP280;39307;52.870;13.660;2023-05-06T03:56:28;101175.06;;;8.49
53412;BMP280;39307;52.870;13.660;2023-05-06T03:58:54;101175.56;;;8.53
53412;BMP280;39307;52.870;13.660;2023-05-06T04:01:20;101167.81;;;8.35
53412;BMP280;39307;52.870;13.660;2023-05-06T04:03:46;101166.22;;;8.42
53412;BMP280;39307;52.870;13.660;2023-05-06T04:06:12;101178.75;;;8.39
53412;BMP280;39307;52.870;13.660;2023-05-06T04:08:39;101171.25;;;8.36
53412;BMP280;39307;52.870;13.660;2023-05-06T04:11:06;101171.41;;;8.35
53412;BMP280;39307;52.870;13.660;2023-05-06T04:13:36;101169.00;;;8.41
53412;BMP280;39307;52.870;13.660;2023-05-06T04:16:02;101172.88;;;8.29
53412;BMP280;39307;52.870;13.660;2023-05-06T04:18:29;101169.91;;;8.24
53412;BMP280;39307;52.870;13.660;2023-05-06T04:20:55;101167.47;;;8.23
53412;BMP280;39307;52.870;13.660;2023-05-06T04:23:21;101175.09;;;8.24
53412;BMP280;39307;52.870;13.660;2023-05-06T04:25:47;101174.31;;;8.24
53412;BMP280;39307;52.870;13.660;2023-05-06T04:28:14;101178.19;;;8.20
53412;BMP280;39307;52.870;13.660;2023-05-06T04:30:44;101170.06;;;8.23
53412;BMP280;39307;52.870;13.660;2023-05-06T04:33:11;101177.94;;;8.05
53412;BMP280;39307;52.870;13.660;2023-05-06T04:35:39;101173.94;;;8.11
53412;BMP280;39307;52.870;13.660;2023-05-06T04:38:05;101182.06;;;8.08
53412;BMP280;39307;52.870;13.660;2023-05-06T04:40:35;101178.22;;;8.28
53412;BMP280;39307;52.870;13.660;2023-05-06T04:43:04;101181.78;;;8.19
53412;BMP280;39307;52.870;13.660;2023-05-06T04:45:30;101172.38;;;8.26
53412;BMP280;39307;52.870;13.660;2023-05-06T04:47:56;101175.44;;;8.21
53412;BMP280;39307;52.870;13.660;2023-05-06T04:50:22;101180.41;;;8.40
53412;BMP280;39307;52.870;13.660;2023-05-06T04:52:48;101187.88;;;8.35
53412;BMP280;39307;52.870;13.660;2023-05-06T04:55:14;101183.78;;;8.25
53412;BMP280;39307;52.870;13.660;2023-05-06T04:57:41;101191.69;;;8.15
53412;BMP280;39307;52.870;13.660;2023-05-06T05:00:07;101197.91;;;8.14
53412;BMP280;39307;52.870;13.660;2023-05-06T05:02:33;101196.97;;;8.23
53412;BMP280;39307;52.870;13.660;2023-05-06T05:05:00;101194.97;;;8.17
53412;BMP280;39307;52.870;13.660;2023-05-06T05:07:26;101200.06;;;8.19
53412;BMP280;39307;52.870;13.660;2023-05-06T05:09:52;101205.59;;;8.24
53412;BMP280;39307;52.870;13.660;2023-05-06T05:12:18;101211.50;;;8.34
53412;BMP280;39307;52.870;13.660;2023-05-06T05:14:44;101212.47;;;8.25
53412;BMP280;39307;52.870;13.660;2023-05-06T05:17:11;101210.81;;;8.24
53412;BMP280;39307;52.870;13.660;2023-05-06T05:19:37;101215.09;;;8.25
53412;BMP280;39307;52.870;13.660;2023-05-06T05:22:03;101215.09;;;8.33
53412;BMP280;39307;52.870;13.660;2023-05-06T05:24:29;101223.13;;;8.39
53412;BMP280;39307;52.870;13.660;2023-05-06T05:26:55;101219.19;;;8.35
53412;BMP280;39307;52.870;13.660;2023-05-06T05:29:21;101220.66;;;8.37
53412;BMP280;39307;52.870;13.660;2023-05-06T05:31:48;101231.25;;;8.36
53412;BMP280;39307;52.870;13.660;2023-05-06T05:34:14;101230.75;;;8.33
53412;BMP280;39307;52.870;13.660;2023-05-06T05:36:40;101229.66;;;8.43
53412;BMP280;39307;52.870;13.660;2023-05-06T05:39:06;101231.94;;;8.46
53412;BMP280;39307;52.870;13.660;2023-05-06T05:41:33;101231.59;;;8.41
53412;BMP280;39307;52.870;13.660;2023-05-06T05:43:59;101236.66;;;8.42
53412;BMP280;39307;52.870;13.660;2023-05-06T05:46:25;101238.19;;;8.53
53412;BMP280;39307;52.870;13.660;2023-05-06T05:48:51;101242.41;;;8.54
53412;BMP280;39307;52.870;13.660;2023-05-06T05:51:17;101247.94;;;8.43
53412;BMP280;39307;52.870;13.660;2023-05-06T05:53:44;101244.34;;;8.44
53412;BMP280;39307;52.870;13.660;2023-05-06T05:56:10;101248.00;;;8.59
53412;BMP280;39307;52.870;13.660;2023-05-06T05:58:36;101235.72;;;8.51
53412;BMP280;39307;52.870;13.660;2023-05-06T06:01:02;101243.97;;;8.39
53412;BMP280;39307;52.870;13.660;2023-05-06T06:03:28;101255.03;;;8.33
53412;BMP280;39307;52.870;13.660;2023-05-06T06:05:55;101250.31;;;8.29
53412;BMP280;39307;52.870;13.660;2023-05-06T06:08:21;101251.38;;;8.18
53412;BMP280;39307;52.870;13.660;2023-05-06T06:10:47;101245.50;;;8.16
53412;BMP280;39307;52.870;13.660;2023-05-06T06:13:13;101245.78;;;8.38
53412;BMP280;39307;52.870;13.660;2023-05-06T06:15:40;101257.69;;;8.41
53412;BMP280;39307;52.870;13.660;2023-05-06T06:18:06;101252.13;;;8.36
53412;BMP280;39307;52.870;13.660;2023-05-06T06:20:32;101256.03;;;8.32
53412;BMP280;39307;52.870;13.660;2023-05-06T06:22:58;101243.78;;;8.33
53412;BMP280;39307;52.870;13.660;2023-05-06T06:25:25;101258.38;;;8.43
53412;BMP280;39307;52.870;13.660;2023-05-06T06:27:51;101244.34;;;8.44
53412;BMP280;39307;52.870;13.660;2023-05-06T06:30:17;101251.84;;;8.47
53412;BMP280;39307;52.870;13.660;2023-05-06T06:32:51;101249.63;;;8.60
53412;BMP280;39307;52.870;13.660;2023-05-06T06:35:18;101252.91;;;8.69
53412;BMP280;39307;52.870;13.660;2023-05-06T06:37:45;101254.84;;;8.60
53412;BMP280;39307;52.870;13.660;2023-05-06T06:40:12;101258.56;;;8.57
53412;BMP280;39307;52.870;13.660;2023-05-06T06:42:38;101267.50;;;8.47
53412;BMP280;39307;52.870;13.660;2023-05-06T06:45:06;101272.41;;;8.50
53412;BMP280;39307;52.870;13.660;2023-05-06T06:47:32;101272.22;;;8.43
53412;BMP280;39307;52.870;13.660;2023-05-06T06:49:58;101265.34;;;8.42
53412;BMP280;39307;52.870;13.660;2023-05-06T06:52:25;101265.34;;;8.35
53412;BMP280;39307;52.870;13.660;2023-05-06T06:54:51;101261.59;;;8.37
53412;BMP280;39307;52.870;13.660;2023-05-06T06:57:17;101258.69;;;8.40
53412;BMP280;39307;52.870;13.660;2023-05-06T06:59:43;101255.78;;;8.51
53412;BMP280;39307;52.870;13.660;2023-05-06T07:02:09;101263.41;;;8.44
53412;BMP280;39307;52.870;13.660;2023-05-06T07:04:36;101261.94;;;8.42
53412;BMP280;39307;52.870;13.660;2023-05-06T07:07:02;101252.91;;;8.62
53412;BMP280;39307;52.870;13.660;2023-05-06T07:09:28;101266.34;;;8.41
53412;BMP280;39307;52.870;13.660;2023-05-06T07:11:54;101264.91;;;8.55
53412;BMP280;39307;52.870;13.660;2023-05-06T07:14:20;101263.72;;;8.41
53412;BMP280;39307;52.870;13.660;2023-05-06T07:16:47;101270.63;;;8.50
53412;BMP280;39307;52.870;13.660;2023-05-06T07:19:13;101270.75;;;8.49
53412;BMP280;39307;52.870;13.660;2023-05-06T07:21:39;101270.25;;;8.37
53412;BMP280;39307;52.870;13.660;2023-05-06T07:24:06;101275.97;;;8.41
53412;BMP280;39307;52.870;13.660;2023-05-06T07:26:35;101273.31;;;8.33
53412;BMP280;39307;52.870;13.660;2023-05-06T07:29:02;101267.97;;;8.42
53412;BMP280;39307;52.870;13.660;2023-05-06T07:31:31;101275.03;;;8.50
53412;BMP280;39307;52.870;13.660;2023-05-06T07:33:57;101270.63;;;8.50
53412;BMP280;39307;52.870;13.660;2023-05-06T07:36:24;101258.31;;;8.68
53412;BMP280;39307;52.870;13.660;2023-05-06T07:38:50;101264.34;;;8.68
53412;BMP280;39307;52.870;13.660;2023-05-06T07:41:16;101259.75;;;8.63
53412;BMP280;39307;52.870;13.660;2023-05-06T07:43:43;101263.97;;;8.63
53412;BMP280;39307;52.870;13.660;2023-05-06T07:46:09;101256.78;;;8.58
53412;BMP280;39307;52.870;13.660;2023-05-06T07:48:35;101259.06;;;8.61
53412;BMP280;39307;52.870;13.660;2023-05-06T07:51:02;101263.97;;;8.63
53412;BMP280;39307;52.870;13.660;2023-05-06T07:53:28;101260.88;;;8.60
53412;BMP280;39307;52.870;13.660;2023-05-06T07:55:56;101270.75;;;8.49
53412;BMP280;39307;52.870;13.660;2023-05-06T07:58:22;101258.63;;;8.65
53412;BMP280;39307;52.870;13.660;2023-05-06T08:00:48;101269.81;;;8.50
53412;BMP280;39307;52.870;13.660;2023-05-06T08:03:15;101265.00;;;8.70
53412;BMP280;39307;52.870;13.660;2023-05-06T08:05:41;101272.47;;;8.65
53412;BMP280;39307;52.870;13.660;2023-05-06T08:08:07;101283.03;;;8.56
53412;BMP280;39307;52.870;13.660;2023-05-06T08:10:33;101283.16;;;8.47
53412;BMP280;39307;52.870;13.660;2023-05-06T08:13:00;101286.28;;;8.50
53412;BMP280;39307;52.870;13.660;2023-05-06T08:15:26;101280.56;;;8.55
53412;BMP280;39307;52.870;13.660;2023-05-06T08:17:52;101287.41;;;8.48
53412;BMP280;39307;52.870;13.660;2023-05-06T08:20:18;101283.91;;;8.64
53412;BMP280;39307;52.870;13.660;2023-05-06T08:22:44;101290.56;;;8.67
53412;BMP280;39307;52.870;13.660;2023-05-06T08:25:11;101287.75;;;8.53
53412;BMP280;39307;52.870;13.660;2023-05-06T08:27:37;101293.94;;;8.52
53412;BMP280;39307;52.870;13.660;2023-05-06T08:30:04;101294.97;;;8.59
53412;BMP280;39307;52.870;13.660;2023-05-06T08:32:30;101276.06;;;8.64
53412;BMP280;39307;52.870;13.660;2023-05-06T08:34:56;101280.00;;;8.68
53412;BMP280;39307;52.870;13.660;2023-05-06T08:37:22;101282.09;;;8.65
53412;BMP280;39307;52.870;13.660;2023-05-06T08:39:48;101275.94;;;8.74
53412;BMP280;39307;52.870;13.660;2023-05-06T08:42:14;101291.75;;;8.72
53412;BMP280;39307;52.870;13.660;2023-05-06T08:44:42;101298.03;;;8.54
53412;BMP280;39307;52.870;13.660;2023-05-06T08:47:08;101305.91;;;8.62
53412;BMP280;39307;52.870;13.660;2023-05-06T08:49:35;101313.75;;;8.70
53412;BMP280;39307;52.870;13.660;2023-05-06T08:52:04;101299.19;;;8.93
53412;BMP280;39307;52.870;13.660;2023-05-06T08:54:34;101300.94;;;8.84
53412;BMP280;39307;52.870;13.660;2023-05-06T08:57:04;101303.22;;;8.79
53412;BMP280;39307;52.870;13.660;2023-05-06T08:59:30;101302.41;;;8.87
53412;BMP280;39307;52.870;13.660;2023-05-06T09:01:56;101300.31;;;8.90
53412;BMP280;39307;52.870;13.660;2023-05-06T09:04:23;101296.06;;;8.97
53412;BMP280;39307;52.870;13.660;2023-05-06T09:06:49;101288.59;;;9.02
53412;BMP280;39307;52.870;13.660;2023-05-06T09:09:15;101299.56;;;9.13
53412;BMP280;39307;52.870;13.660;2023-05-06T09:11:41;101304.47;;;9.24
53412;BMP280;39307;52.870;13.660;2023-05-06T09:14:13;101302.81;;;9.07
53412;BMP280;39307;52.870;13.660;2023-05-06T09:16:42;101308.19;;;8.98
53412;BMP280;39307;52.870;13.660;2023-05-06T09:19:09;101315.38;;;9.12
53412;BMP280;39307;52.870;13.660;2023-05-06T09:21:40;101313.00;;;9.42
53412;BMP280;39307;52.870;13.660;2023-05-06T09:24:08;101309.88;;;9.30
53412;BMP280;39307;52.870;13.660;2023-05-06T09:26:37;101315.75;;;9.32
53412;BMP280;39307;52.870;13.660;2023-05-06T09:29:04;101316.72;;;9.23
53412;BMP280;39307;52.870;13.660;2023-05-06T09:31:30;101319.66;;;9.21
53412;BMP280;39307;52.870;13.660;2023-05-06T09:33:58;101327.66;;;9.27
53412;BMP280;39307;52.870;13.660;2023-05-06T09:36:27;101332.41;;;9.23
53412;BMP280;39307;52.870;13.660;2023-05-06T09:38:54;101331.56;;;9.15
53412;BMP280;39307;52.870;13.660;2023-05-06T09:41:21;101334.19;;;9.23
53412;BMP280;39307;52.870;13.660;2023-05-06T09:43:48;101331.72;;;9.21
53412;BMP280;39307;52.870;13.660;2023-05-06T09:46:18;101335.47;;;9.11
53412;BMP280;39307;52.870;13.660;2023-05-06T09:48:48;101342.81;;;9.08
53412;BMP280;39307;52.870;13.660;2023-05-06T09:51:15;101342.50;;;9.11
53412;BMP280;39307;52.870;13.660;2023-05-06T09:53:43;101339.91;;;9.26
53412;BMP280;39307;52.870;13.660;2023-05-06T09:56:10;101342.56;;;9.34
53412;BMP280;39307;52.870;13.660;2023-05-06T09:58:37;101346.75;;;9.20
53412;BMP280;39307;52.870;13.660;2023-05-06T10:01:05;101348.06;;;9.23
53412;BMP280;39307;52.870;13.660;2023-05-06T10:03:32;101344.59;;;9.15
53412;BMP280;39307;52.870;13.660;2023-05-06T10:06:03;101342.22;;;9.29
53412;BMP280;39307;52.870;13.660;2023-05-06T10:08:32;101343.66;;;9.16
53412;BMP280;39307;52.870;13.660;2023-05-06T10:11:00;101336.84;;;9.31
53412;BMP280;39307;52.870;13.660;2023-05-06T10:13:27;101344.69;;;9.39
53412;BMP280;39307;52.870;13.660;2023-05-06T10:15:53;101338.78;;;9.29
53412;BMP280;39307;52.870;13.660;2023-05-06T10:18:20;101347.16;;;9.40
53412;BMP280;39307;52.870;13.660;2023-05-06T10:20:48;101342.88;;;9.31
53412;BMP280;39307;52.870;13.660;2023-05-06T10:23:28;101350.88;;;9.46
53412;BMP280;39307;52.870;13.660;2023-05-06T10:26:05;101348.31;;;9.53
53412;BMP280;39307;52.870;13.660;2023-05-06T10:28:31;101356.31;;;9.52
53412;BMP280;39307;52.870;13.660;2023-05-06T10:30:59;101359.53;;;9.38
53412;BMP280;39307;52.870;13.660;2023-05-06T10:33:28;101359.19;;;9.25
53412;BMP280;39307;52.870;13.660;2023-05-06T10:38:41;101356.09;;;9.22
53412;BMP280;39307;52.870;13.660;2023-05-06T10:41:08;101374.34;;;9.14
53412;BMP280;39307;52.870;13.660;2023-05-06T10:43:42;101372.34;;;9.08
53412;BMP280;39307;52.870;13.660;2023-05-06T10:48:38;101381.50;;;9.12
53412;BMP280;39307;52.870;13.660;2023-05-06T10:51:20;101390.50;;;9.10
53412;BMP280;39307;52.870;13.660;2023-05-06T10:54:04;101396.69;;;9.09
53412;BMP280;39307;52.870;13.660;2023-05-06T10:56:35;101392.06;;;9.03
53412;BMP280;39307;52.870;13.660;2023-05-06T10:59:06;101398.59;;;8.99
53412;BMP280;39307;52.870;13.660;2023-05-06T11:01:37;101391.44;;;9.01
53412;BMP280;39307;52.870;13.660;2023-05-06T11:04:12;101392.69;;;8.97
53412;BMP280;39307;52.870;13.660;2023-05-06T11:06:44;101395.69;;;9.02
53412;BMP280;39307;52.870;13.660;2023-05-06T11:09:15;101397.09;;;8.96
53412;BMP280;39307;52.870;13.660;2023-05-06T11:12:02;101402.03;;;8.99
53412;BMP280;39307;52.870;13.660;2023-05-06T11:14:36;101399.16;;;9.10
53412;BMP280;39307;52.870;13.660;2023-05-06T11:17:04;101401.25;;;9.07
53412;BMP280;39307;52.870;13.660;2023-05-06T11:19:34;101405.69;;;8.81
53412;BMP280;39307;52.870;13.660;2023-05-06T11:22:02;101391.03;;;8.88
53412;BMP280;39307;52.870;13.660;2023-05-06T11:24:38;101398.84;;;8.88
53412;BMP280;39307;52.870;13.660;2023-05-06T11:27:05;101392.00;;;8.87
53412;BMP280;39307;52.870;13.660;2023-05-06T11:29:32;101401.69;;;8.69
53412;BMP280;39307;52.870;13.660;2023-05-06T11:31:58;101406.09;;;8.69
53412;BMP280;39307;52.870;13.660;2023-05-06T11:34:29;101402.44;;;8.79
53412;BMP280;39307;52.870;13.660;2023-05-06T11:37:02;101400.22;;;8.92
53412;BMP280;39307;52.870;13.660;2023-05-06T11:39:34;101413.88;;;8.86
53412;BMP280;39307;52.870;13.660;2023-05-06T11:42:02;101413.56;;;8.89
53412;BMP280;39307;52.870;13.660;2023-05-06T11:44:31;101417.44;;;8.85
53412;BMP280;39307;52.870;13.660;2023-05-06T11:47:03;101414.06;;;8.93
53412;BMP280;39307;52.870;13.660;2023-05-06T11:49:29;101410.97;;;8.89
53412;BMP280;39307;52.870;13.660;2023-05-06T11:52:00;101411.91;;;8.88
53412;BMP280;39307;52.870;13.660;2023-05-06T11:54:26;101415.25;;;8.98
53412;BMP280;39307;52.870;13.660;2023-05-06T11:56:54;101414.25;;;8.99
53412;BMP280;39307;52.870;13.660;2023-05-06T11:59:34;101419.50;;;8.99
53412;BMP280;39307;52.870;13.660;2023-05-06T12:02:03;101410.09;;;9.14
53412;BMP280;39307;52.870;13.660;2023-05-06T12:04:43;101422.09;;;8.99
53412;BMP280;39307;52.870;13.660;2023-05-06T12:07:12;101432.25;;;9.02
53412;BMP280;39307;52.870;13.660;2023-05-06T12:09:43;101423.28;;;9.04
53412;BMP280;39307;52.870;13.660;2023-05-06T12:12:11;101425.13;;;9.20
53412;BMP280;39307;52.870;13.660;2023-05-06T12:14:41;101424.66;;;9.24
53412;BMP280;39307;52.870;13.660;2023-05-06T12:17:08;101419.28;;;9.25
53412;BMP280;39307;52.870;13.660;2023-05-06T12:19:34;101431.09;;;9.45
53412;BMP280;39307;52.870;13.660;2023-05-06T12:22:20;101421.31;;;9.47
53412;BMP280;39307;52.870;13.660;2023-05-06T12:24:47;101430.47;;;9.43
53412;BMP280;39307;52.870;13.660;2023-05-06T12:27:25;101435.38;;;9.46
53412;BMP280;39307;52.870;13.660;2023-05-06T12:29:52;101440.28;;;9.49
53412;BMP280;39307;52.870;13.660;2023-05-06T12:32:19;101437.81;;;9.48
53412;BMP280;39307;52.870;13.660;2023-05-06T12:34:45;101443.34;;;9.45
53412;BMP280;39307;52.870;13.660;2023-05-06T12:37:26;101452.19;;;9.51
53412;BMP280;39307;52.870;13.660;2023-05-06T12:39:53;101457.91;;;9.47
53412;BMP280;39307;52.870;13.660;2023-05-06T12:42:20;101456.59;;;9.51
53412;BMP280;39307;52.870;13.660;2023-05-06T12:44:47;101464.81;;;9.64
53412;BMP280;39307;52.870;13.660;2023-05-06T12:47:24;101451.78;;;9.79
53412;BMP280;39307;52.870;13.660;2023-05-06T12:49:57;101455.72;;;9.83
53412;BMP280;39307;52.870;13.660;2023-05-06T12:52:27;101449.88;;;9.89
53412;BMP280;39307;52.870;13.660;2023-05-06T12:54:54;101446.72;;;9.78
53412;BMP280;39307;52.870;13.660;2023-05-06T12:57:21;101444.31;;;9.92
53412;BMP280;39307;52.870;13.660;2023-05-06T12:59:47;101449.72;;;9.99
53412;BMP280;39307;52.870;13.660;2023-05-06T13:02:14;101448.75;;;9.92
53412;BMP280;39307;52.870;13.660;2023-05-06T13:04:40;101457.34;;;9.84
53412;BMP280;39307;52.870;13.660;2023-05-06T13:07:07;101457.81;;;9.72
53412;BMP280;39307;52.870;13.660;2023-05-06T13:09:33;101456.75;;;9.90
53412;BMP280;39307;52.870;13.660;2023-05-06T13:11:59;101469.94;;;9.81
53412;BMP280;39307;52.870;13.660;2023-05-06T13:14:26;101470.13;;;9.87
53412;BMP280;39307;52.870;13.660;2023-05-06T13:16:52;101476.66;;;9.83
53412;BMP280;39307;52.870;13.660;2023-05-06T13:19:19;101470.63;;;9.91
53412;BMP280;39307;52.870;13.660;2023-05-06T13:21:45;101484.47;;;9.76
53412;BMP280;39307;52.870;13.660;2023-05-06T13:24:11;101480.50;;;9.64
53412;BMP280;39307;52.870;13.660;2023-05-06T13:26:37;101473.72;;;9.86
53412;BMP280;39307;52.870;13.660;2023-05-06T13:29:03;101476.28;;;9.71
53412;BMP280;39307;52.870;13.660;2023-05-06T13:31:30;101478.41;;;9.67
53412;BMP280;39307;52.870;13.660;2023-05-06T13:33:56;101481.19;;;9.81
53412;BMP280;39307;52.870;13.660;2023-05-06T13:36:23;101482.16;;;9.65
53412;BMP280;39307;52.870;13.660;2023-05-06T13:38:49;101475.44;;;9.62
53412;BMP280;39307;52.870;13.660;2023-05-06T13:41:16;101472.19;;;9.76
53412;BMP280;39307;52.870;13.660;2023-05-06T13:43:42;101476.28;;;9.78
53412;BMP280;39307;52.870;13.660;2023-05-06T13:46:08;101488.69;;;9.69
53412;BMP280;39307;52.870;13.660;2023-05-06T13:48:34;101484.09;;;9.63
53412;BMP280;39307;52.870;13.660;2023-05-06T13:51:01;101481.38;;;9.80
53412;BMP280;39307;52.870;13.660;2023-05-06T13:53:27;101482.41;;;9.87
53412;BMP280;39307;52.870;13.660;2023-05-06T13:55:53;101480.53;;;9.72
53412;BMP280;39307;52.870;13.660;2023-05-06T13:58:19;101486.44;;;9.74
53412;BMP280;39307;52.870;13.660;2023-05-06T14:00:46;101489.63;;;9.60
53412;BMP280;39307;52.870;13.660;2023-05-06T14:03:14;101488.31;;;9.56
53412;BMP280;39307;52.870;13.660;2023-05-06T14:05:41;101484.41;;;9.60